首页
METAR-TAF:

METAR-TAF

机场 :

Charles B. Wheeler Downtown Airport

堪薩斯城, 密蘇里州, 美国

纬度: 39-07-15N, 经度: 094-35-49W, 海拔: 231米

当前天气观测

该预报发布于45分钟前的17:54 UTC
风速5节,风向多变
温度 30°C
湿度 46%
气压 1019 hPa
能見度: 16.1公里
天空无云

METAR: KMKC 261754Z VRB05KT 10SM CLR 30/17 A3009 RMK AO2 SLP181 T03000172 10300 20228 56005

时间: 13:39 (18:39 UTC)

预报

该预报发布于1小时和16分钟前的17:23 UTC
预报有效从26日的 18点(UTC)到 27日的 18点(UTC)
风速9节,风向
能見度: 10公里
多云层高于15000英尺
从 27日的 1600点(UTC)
风速10节,风向,有时为19节阵风
能見度: 10公里
散云层高于5000英尺

TAF: KMKC 261723Z 2618/2718 19009KT P6SM BKN150 FM271600 19010G19KT P6SM SCT050

超过4000个机场的气象观测和天气预报(METAR&TAF报告)。

可查询的气象台以黄色和红色小点在地图上表示。

将鼠标移到小点上方,可查看气象台名称。

然后点击查看天气观测和预报。

如需切换地图:点击带黑十字的绿色按钮放大地图;点击带横线的绿色按钮缩小地图;或者点击绿色箭头查看邻近地区的地图。


METAR-TAF: